Time;durP1;ratioP1;P1;durP2;ratioP2;P2;SDS_P1;SDS_P2;PMS_P1;PMS_P2;Temp;Humidity;BMP_temperature;BMP_pressure;BME280_temperature;BME280_humidity;BME280_pressure;Samples;Min_cycle;Max_cycle;Signal;HPM_P1;HPM_P2
2021/01/04 00:01:56;;;;;;;77.43;46.10;;;;;;;;;;5002950;28;20464;-92
2021/01/04 00:04:42;;;;;;;81.63;48.10;;;;;;;;;;5003557;28;20452;-92
2021/01/04 00:07:16;;;;;;;78.70;48.37;;;;;;;;;;5002387;28;20449;-92
2021/01/04 00:10:01;;;;;;;64.07;42.20;;;;;;;;;;5002797;28;20457;-91
2021/01/04 00:12:29;;;;;;;84.27;50.37;;;;;;;;;;4999312;28;20535;-93
2021/01/04 00:15:01;;;;;;;69.10;45.33;;;;;;;;;;5003450;28;20456;-93
2021/01/04 00:17:58;;;;;;;61.13;40.40;;;;;;;;;;4998843;28;20461;-93
2021/01/04 00:20:28;;;;;;;67.17;42.77;;;;;;;;;;4935399;29;20471;-93
2021/01/04 00:22:59;;;;;;;53.50;34.53;;;;;;;;;;4981525;28;20460;-94
2021/01/04 00:25:27;;;;;;;46.67;29.57;;;;;;;;;;5003472;28;20492;-92
2021/01/04 00:27:58;;;;;;;48.53;31.50;;;;;;;;;;5000228;28;20453;-93
2021/01/04 00:30:26;;;;;;;47.90;30.70;;;;;;;;;;5002088;28;20467;-94
2021/01/04 00:32:54;;;;;;;52.83;31.70;;;;;;;;;;4997774;28;20480;-94
2021/01/04 00:35:21;;;;;;;47.30;32.43;;;;;;;;;;5000477;28;20456;-94
2021/01/04 00:38:02;;;;;;;51.63;31.10;;;;;;;;;;4999769;28;20457;-94
2021/01/04 00:40:33;;;;;;;44.50;29.03;;;;;;;;;;5001336;28;20461;-93
2021/01/04 00:43:00;;;;;;;49.40;30.20;;;;;;;;;;5002214;28;20515;-94
2021/01/04 00:45:27;;;;;;;56.63;32.80;;;;;;;;;;4998938;28;20452;-94
2021/01/04 00:48:02;;;;;;;56.03;33.40;;;;;;;;;;5001905;28;20461;-94
2021/01/04 00:50:37;;;;;;;55.23;33.20;;;;;;;;;;4998365;28;20468;-94
2021/01/04 00:53:04;;;;;;;50.10;31.00;;;;;;;;;;5001198;28;20514;-93
2021/01/04 00:55:39;;;;;;;53.00;29.37;;;;;;;;;;4996100;28;20453;-93
2021/01/04 00:58:20;;;;;;;51.37;29.90;;;;;;;;;;5001368;28;20456;-94
2021/01/04 01:00:50;;;;;;;41.17;27.30;;;;;;;;;;4998705;28;20960;-94
2021/01/04 01:03:31;;;;;;;47.93;28.20;;;;;;;;;;5002233;28;20487;-94
2021/01/04 01:06:01;;;;;;;43.17;26.10;;;;;;;;;;4985900;28;20472;-94
2021/01/04 01:08:28;;;;;;;38.47;24.90;;;;;;;;;;5002930;28;20476;-94
2021/01/04 01:10:57;;;;;;;35.47;24.90;;;;;;;;;;5002260;28;20461;-93
2021/01/04 01:13:42;;;;;;;41.67;26.37;;;;;;;;;;5000613;28;20497;-94
2021/01/04 01:16:22;;;;;;;39.13;26.00;;;;;;;;;;5001256;28;20457;-94
2021/01/04 01:18:56;;;;;;;42.30;26.67;;;;;;;;;;4998128;28;20496;-94
2021/01/04 01:21:23;;;;;;;31.67;21.57;;;;;;;;;;5001814;28;20469;-95
2021/01/04 01:23:49;;;;;;;35.00;24.00;;;;;;;;;;4999387;28;20480;-95
2021/01/04 01:26:35;;;;;;;31.90;22.10;;;;;;;;;;5001641;28;20467;-95
2021/01/04 01:29:11;;;;;;;24.23;17.30;;;;;;;;;;4999599;28;20480;-95
2021/01/04 01:31:52;;;;;;;19.70;15.03;;;;;;;;;;5006906;28;20491;-96
2021/01/04 01:34:35;;;;;;;16.17;12.27;;;;;;;;;;5002745;28;20449;-95
2021/01/04 01:37:12;;;;;;;15.70;10.47;;;;;;;;;;5005615;28;20464;-94
2021/01/04 01:39:52;;;;;;;18.30;13.33;;;;;;;;;;5002400;28;20479;-93
2021/01/04 01:42:36;;;;;;;23.20;14.87;;;;;;;;;;5006066;28;20471;-94
2021/01/04 01:45:10;;;;;;;21.97;15.60;;;;;;;;;;5002067;28;20467;-95
2021/01/04 01:47:41;;;;;;;31.03;18.80;;;;;;;;;;5002971;28;20459;-95
2021/01/04 01:50:09;;;;;;;31.80;18.33;;;;;;;;;;4999671;28;20457;-96
2021/01/04 01:52:43;;;;;;;34.03;19.37;;;;;;;;;;5003407;28;20507;-96
2021/01/04 01:55:25;;;;;;;33.43;20.10;;;;;;;;;;5003131;28;20459;-93
2021/01/04 01:58:09;;;;;;;48.67;26.50;;;;;;;;;;5003482;28;20491;-94
2021/01/04 02:00:38;;;;;;;49.67;29.83;;;;;;;;;;5006223;28;20503;-93
2021/01/04 02:03:07;;;;;;;50.97;30.07;;;;;;;;;;5000946;28;20480;-93
2021/01/04 02:05:53;;;;;;;51.87;32.57;;;;;;;;;;5002508;28;20457;-94
2021/01/04 02:08:22;;;;;;;65.97;38.00;;;;;;;;;;4994067;28;20515;-95
2021/01/04 02:10:51;;;;;;;67.10;37.30;;;;;;;;;;5002377;28;20484;-94
2021/01/04 02:13:19;;;;;;;54.10;33.40;;;;;;;;;;4999716;28;20500;-95
2021/01/04 02:15:49;;;;;;;48.30;30.90;;;;;;;;;;5003744;28;20475;-92
2021/01/04 02:18:29;;;;;;;44.40;27.20;;;;;;;;;;4999790;28;20481;-94
2021/01/04 02:21:11;;;;;;;40.33;24.60;;;;;;;;;;5003340;28;20444;-95
2021/01/04 02:23:41;;;;;;;39.13;26.83;;;;;;;;;;5000218;28;20483;-96
2021/01/04 02:26:10;;;;;;;37.00;22.33;;;;;;;;;;5002217;28;20463;-94
2021/01/04 02:28:41;;;;;;;41.47;24.20;;;;;;;;;;4999476;28;20542;-96
2021/01/04 02:31:07;;;;;;;39.70;26.60;;;;;;;;;;5003440;28;20517;-95
2021/01/04 02:33:33;;;;;;;39.90;26.93;;;;;;;;;;5001745;28;20951;-94
2021/01/04 02:36:01;;;;;;;38.20;23.73;;;;;;;;;;5000923;28;20946;-95
2021/01/04 02:38:33;;;;;;;32.00;21.50;;;;;;;;;;5003691;28;20572;-93
2021/01/04 02:40:59;;;;;;;25.03;17.83;;;;;;;;;;5000260;28;20457;-94
2021/01/04 02:43:26;;;;;;;29.33;20.47;;;;;;;;;;5004639;28;20472;-94
2021/01/04 02:45:54;;;;;;;23.00;19.23;;;;;;;;;;5001166;28;20460;-95
2021/01/04 02:48:25;;;;;;;21.23;15.63;;;;;;;;;;5003651;28;20453;-95
2021/01/04 02:50:56;;;;;;;19.90;15.83;;;;;;;;;;5000556;28;20457;-94
2021/01/04 02:53:34;;;;;;;18.40;15.60;;;;;;;;;;4984413;28;20497;-96
2021/01/04 02:56:07;;;;;;;19.10;15.30;;;;;;;;;;4985868;28;20457;-95
2021/01/04 02:58:45;;;;;;;15.50;12.37;;;;;;;;;;4984575;28;20477;-95
2021/01/04 03:01:13;;;;;;;10.60;8.60;;;;;;;;;;4984159;28;20464;-94
2021/01/04 03:03:40;;;;;;;16.37;12.30;;;;;;;;;;5001209;28;20643;-95
2021/01/04 03:06:08;;;;;;;20.17;14.00;;;;;;;;;;5001143;28;20460;-96
2021/01/04 03:08:34;;;;;;;37.93;19.27;;;;;;;;;;4999058;28;20464;-94
2021/01/04 03:11:00;;;;;;;27.10;17.77;;;;;;;;;;5003001;28;20453;-95
2021/01/04 03:13:31;;;;;;;27.57;17.07;;;;;;;;;;5000071;28;20503;-96
2021/01/04 03:16:06;;;;;;;38.53;18.43;;;;;;;;;;5003398;28;20476;-94
2021/01/04 03:18:35;;;;;;;32.87;18.57;;;;;;;;;;5000915;28;20557;-94
2021/01/04 03:21:01;;;;;;;48.80;24.50;;;;;;;;;;5003900;28;20453;-95
2021/01/04 03:23:28;;;;;;;36.13;21.73;;;;;;;;;;5001924;28;20448;-95
2021/01/04 03:25:55;;;;;;;38.77;23.93;;;;;;;;;;5002764;28;20465;-96
2021/01/04 03:28:23;;;;;;;41.87;26.07;;;;;;;;;;5004319;28;20484;-96
2021/01/04 03:30:50;;;;;;;42.63;26.13;;;;;;;;;;5000665;28;20476;-96
2021/01/04 03:33:17;;;;;;;43.17;27.37;;;;;;;;;;5003506;28;20489;-96
2021/01/04 03:35:43;;;;;;;42.03;26.80;;;;;;;;;;5000397;28;20471;-96
2021/01/04 03:38:09;;;;;;;55.73;28.40;;;;;;;;;;5003945;28;20444;-96
2021/01/04 03:40:35;;;;;;;43.67;27.80;;;;;;;;;;4999634;28;20465;-95
2021/01/04 03:43:01;;;;;;;39.87;25.20;;;;;;;;;;5002338;28;20455;-95
2021/01/04 03:45:27;;;;;;;46.23;25.67;;;;;;;;;;5000202;28;20468;-95
2021/01/04 03:47:53;;;;;;;41.07;24.83;;;;;;;;;;5002675;28;20828;-95
2021/01/04 03:50:20;;;;;;;49.77;33.77;;;;;;;;;;5003447;28;20452;-95
2021/01/04 03:52:46;;;;;;;287.77;42.63;;;;;;;;;;5000268;28;20542;-95
2021/01/04 03:55:14;;;;;;;37.70;25.53;;;;;;;;;;5003590;28;20472;-95
2021/01/04 03:57:40;;;;;;;42.40;26.13;;;;;;;;;;5001014;28;20480;-95
2021/01/04 04:00:07;;;;;;;47.27;28.10;;;;;;;;;;4985035;28;20527;-96
2021/01/04 04:02:33;;;;;;;51.63;28.13;;;;;;;;;;4999533;28;20474;-95
2021/01/04 04:05:00;;;;;;;41.63;26.00;;;;;;;;;;5002389;28;20461;-96
2021/01/04 04:07:26;;;;;;;40.60;24.57;;;;;;;;;;5001050;28;20457;-96
2021/01/04 04:09:52;;;;;;;44.17;25.47;;;;;;;;;;5001975;28;20444;-96
2021/01/04 04:12:19;;;;;;;36.47;24.53;;;;;;;;;;5003285;28;20489;-95
2021/01/04 04:14:46;;;;;;;51.60;28.13;;;;;;;;;;4999197;28;20469;-95
2021/01/04 04:17:12;;;;;;;53.00;30.33;;;;;;;;;;5002424;28;20453;-95
2021/01/04 04:19:38;;;;;;;45.40;25.50;;;;;;;;;;5000944;28;20487;-95
2021/01/04 04:22:04;;;;;;;39.20;24.13;;;;;;;;;;5002901;28;20453;-94
2021/01/04 04:24:31;;;;;;;31.90;22.20;;;;;;;;;;5000501;28;20496;-94
2021/01/04 04:26:57;;;;;;;28.57;19.80;;;;;;;;;;5002780;28;20468;-93
2021/01/04 04:29:23;;;;;;;28.20;19.07;;;;;;;;;;5000019;28;20461;-94
2021/01/04 04:31:49;;;;;;;26.93;18.10;;;;;;;;;;5000782;28;20492;-95
2021/01/04 04:34:16;;;;;;;28.47;19.10;;;;;;;;;;5002395;28;20465;-94
2021/01/04 04:36:42;;;;;;;26.20;17.80;;;;;;;;;;5001107;28;20468;-95
2021/01/04 04:39:10;;;;;;;27.07;17.40;;;;;;;;;;5001772;28;20452;-94
2021/01/04 04:41:39;;;;;;;23.60;16.67;;;;;;;;;;4998074;28;20468;-93
2021/01/04 04:44:08;;;;;;;20.23;15.30;;;;;;;;;;5001931;28;20468;-94
2021/01/04 04:46:43;;;;;;;19.27;14.30;;;;;;;;;;4999562;28;20496;-96
2021/01/04 04:49:12;;;;;;;25.20;15.80;;;;;;;;;;5002606;28;20444;-95
2021/01/04 04:51:45;;;;;;;24.50;16.80;;;;;;;;;;4999742;28;20503;-95
2021/01/04 04:54:33;;;;;;;24.23;16.70;;;;;;;;;;5000599;28;20457;-94
2021/01/04 04:57:17;;;;;;;19.93;14.30;;;;;;;;;;4999803;28;20452;-94
2021/01/04 04:59:51;;;;;;;25.53;17.47;;;;;;;;;;5000838;28;20478;-95
2021/01/04 05:02:22;;;;;;;17.10;12.40;;;;;;;;;;5001263;28;20469;-94
2021/01/04 05:04:59;;;;;;;15.07;11.43;;;;;;;;;;5002467;28;20484;-94
2021/01/04 05:07:30;;;;;;;15.97;11.40;;;;;;;;;;5006480;28;20449;-95
2021/01/04 05:09:57;;;;;;;15.50;12.40;;;;;;;;;;5003932;28;20459;-95
2021/01/04 05:12:30;;;;;;;12.47;10.43;;;;;;;;;;5005440;28;20503;-95
2021/01/04 05:14:58;;;;;;;14.30;9.90;;;;;;;;;;5000291;28;20465;-95
2021/01/04 05:17:42;;;;;;;13.43;10.60;;;;;;;;;;5006126;28;20457;-94
2021/01/04 05:20:15;;;;;;;15.07;9.93;;;;;;;;;;4995081;28;20463;-93
2021/01/04 05:22:46;;;;;;;16.93;11.00;;;;;;;;;;5004698;28;20471;-94
2021/01/04 05:25:30;;;;;;;12.63;9.83;;;;;;;;;;5001176;28;20484;-94
2021/01/04 05:28:29;;;;;;;14.03;10.63;;;;;;;;;;5004819;28;20451;-95
2021/01/04 05:31:09;;;;;;;14.10;10.77;;;;;;;;;;4922894;29;20468;-94
2021/01/04 05:33:52;;;;;;;14.27;11.33;;;;;;;;;;4924178;29;20506;-94
2021/01/04 05:36:24;;;;;;;14.20;11.73;;;;;;;;;;4973334;28;21003;-94
2021/01/04 05:38:58;;;;;;;14.83;11.10;;;;;;;;;;5004712;28;20460;-94
2021/01/04 05:41:36;;;;;;;18.90;14.40;;;;;;;;;;5001298;28;20460;-94
2021/01/04 05:44:08;;;;;;;17.83;13.43;;;;;;;;;;5006353;28;20464;-93
2021/01/04 05:46:45;;;;;;;19.27;14.33;;;;;;;;;;5002921;28;20518;-95
2021/01/04 05:49:15;;;;;;;18.70;13.50;;;;;;;;;;4998492;28;20468;-94
2021/01/04 05:51:43;;;;;;;16.73;11.70;;;;;;;;;;5001508;28;20495;-96
2021/01/04 05:54:09;;;;;;;16.07;12.20;;;;;;;;;;4997808;28;20452;-96
2021/01/04 05:56:35;;;;;;;16.90;14.70;;;;;;;;;;4999012;28;20452;-96
2021/01/04 05:59:09;;;;;;;19.27;14.90;;;;;;;;;;4996217;28;20461;-96
2021/01/04 06:01:36;;;;;;;24.67;15.90;;;;;;;;;;4997504;28;20495;-94
2021/01/04 06:04:05;;;;;;;20.20;15.60;;;;;;;;;;4993054;28;20538;-95
2021/01/04 06:06:33;;;;;;;26.23;16.00;;;;;;;;;;4997537;28;20449;-94
2021/01/04 06:09:06;;;;;;;27.50;21.40;;;;;;;;;;4995339;28;20460;-95
2021/01/04 06:11:32;;;;;;;35.57;21.73;;;;;;;;;;4997823;28;21232;-96
2021/01/04 06:14:02;;;;;;;45.97;25.50;;;;;;;;;;4996368;28;20501;-95
2021/01/04 06:16:28;;;;;;;82.67;41.80;;;;;;;;;;4996128;28;20456;-95
2021/01/04 06:18:55;;;;;;;107.53;43.07;;;;;;;;;;4997679;28;20468;-95
2021/01/04 06:21:40;;;;;;;79.27;41.70;;;;;;;;;;4995717;28;20930;-94
2021/01/04 06:24:08;;;;;;;96.97;46.30;;;;;;;;;;4998971;28;20481;-95
2021/01/04 06:26:34;;;;;;;78.80;46.07;;;;;;;;;;4997068;28;20677;-95
2021/01/04 06:29:02;;;;;;;74.00;44.30;;;;;;;;;;5003553;28;20472;-95
2021/01/04 06:31:31;;;;;;;65.40;40.20;;;;;;;;;;5000710;28;20491;-94
2021/01/04 06:33:58;;;;;;;65.00;38.67;;;;;;;;;;5003817;28;20999;-95
2021/01/04 06:36:25;;;;;;;65.30;39.10;;;;;;;;;;5001074;28;21394;-95
2021/01/04 06:38:52;;;;;;;66.93;38.80;;;;;;;;;;5005159;28;20445;-95
2021/01/04 06:41:28;;;;;;;75.43;40.00;;;;;;;;;;5004301;28;20530;-95
2021/01/04 06:43:54;;;;;;;58.53;37.50;;;;;;;;;;4968096;28;20473;-95
2021/01/04 06:46:30;;;;;;;78.37;43.87;;;;;;;;;;4984795;28;20473;-94
2021/01/04 06:48:59;;;;;;;64.03;38.67;;;;;;;;;;5000764;28;20452;-94
2021/01/04 06:51:36;;;;;;;68.53;39.27;;;;;;;;;;5003205;28;20782;-93
2021/01/04 06:54:08;;;;;;;79.53;45.30;;;;;;;;;;5002612;28;20496;-94
2021/01/04 06:56:52;;;;;;;71.00;43.37;;;;;;;;;;5004263;28;20535;-95
2021/01/04 06:59:31;;;;;;;70.20;40.13;;;;;;;;;;4999786;28;20499;-94
2021/01/04 07:02:16;;;;;;;93.90;43.10;;;;;;;;;;5001578;28;20448;-95
2021/01/04 07:05:03;;;;;;;68.60;39.83;;;;;;;;;;4995645;28;20468;-95
2021/01/04 07:07:34;;;;;;;62.83;38.67;;;;;;;;;;5003001;28;20453;-93
2021/01/04 07:10:08;;;;;;;56.47;36.67;;;;;;;;;;4997903;28;20487;-92
2021/01/04 07:12:44;;;;;;;65.00;36.73;;;;;;;;;;5001723;28;21011;-96
2021/01/04 07:15:17;;;;;;;57.00;34.73;;;;;;;;;;5000003;28;20496;-94
2021/01/04 07:17:53;;;;;;;62.17;36.87;;;;;;;;;;4999826;28;20864;-96
2021/01/04 07:20:26;;;;;;;64.53;40.43;;;;;;;;;;5002644;28;20493;-96
2021/01/04 07:23:02;;;;;;;76.97;46.37;;;;;;;;;;5004794;28;20463;-96
2021/01/04 07:25:33;;;;;;;75.83;48.17;;;;;;;;;;5003752;28;20495;-96
2021/01/04 07:28:01;;;;;;;70.83;45.37;;;;;;;;;;5003660;28;20447;-94
2021/01/04 07:30:39;;;;;;;69.87;43.77;;;;;;;;;;5002752;28;20464;-94
2021/01/04 07:33:06;;;;;;;64.63;41.70;;;;;;;;;;5001929;28;20496;-96
2021/01/04 07:35:34;;;;;;;54.37;38.17;;;;;;;;;;5004183;28;20448;-96
2021/01/04 07:38:08;;;;;;;56.30;36.97;;;;;;;;;;5001019;28;20464;-96
2021/01/04 07:40:42;;;;;;;52.03;33.93;;;;;;;;;;5002567;28;20437;-96
2021/01/04 07:43:29;;;;;;;50.50;32.53;;;;;;;;;;5000150;28;20468;-96
2021/01/04 07:46:14;;;;;;;53.40;32.80;;;;;;;;;;4981149;28;20449;-96
2021/01/04 07:48:52;;;;;;;52.47;33.57;;;;;;;;;;5010115;28;20857;-96
2021/01/04 07:54:41;;;;;;;57.77;34.33;;;;;;;;;;4985412;28;20449;-96
2021/01/04 07:57:22;;;;;;;53.13;32.23;;;;;;;;;;5014480;28;20484;-96
2021/01/04 08:00:03;;;;;;;61.07;34.80;;;;;;;;;;5014848;28;20456;-96
2021/01/04 08:02:45;;;;;;;57.20;34.77;;;;;;;;;;5012798;28;20445;-96
2021/01/04 08:05:20;;;;;;;61.40;36.70;;;;;;;;;;5002045;28;20441;-96
2021/01/04 08:08:01;;;;;;;60.33;36.57;;;;;;;;;;5007761;28;20464;-96
2021/01/04 08:10:39;;;;;;;75.73;44.20;;;;;;;;;;5003934;28;20452;-96
2021/01/04 08:13:20;;;;;;;85.20;52.20;;;;;;;;;;5002864;28;20488;-96
2021/01/04 08:15:47;;;;;;;84.07;54.70;;;;;;;;;;5000932;28;20967;-96
2021/01/04 08:18:16;;;;;;;79.97;52.20;;;;;;;;;;5001537;28;20881;-95
2021/01/04 08:20:43;;;;;;;82.80;53.77;;;;;;;;;;5002015;28;20449;-94
2021/01/04 08:26:38;;;;;;;73.73;48.20;;;;;;;;;;5099933;23;20506;-96
2021/01/04 08:29:16;;;;;;;59.87;41.50;;;;;;;;;;5035002;28;20440;-96
2021/01/04 08:35:31;;;;;;;64.87;41.83;;;;;;;;;;4957503;28;20439;-96
2021/01/04 08:38:17;;;;;;;69.63;43.87;;;;;;;;;;5093475;23;20556;-96
2021/01/04 08:40:51;;;;;;;68.73;45.57;;;;;;;;;;5060565;23;20440;-96
2021/01/04 08:46:20;;;;;;;71.80;44.60;;;;;;;;;;4998256;23;20480;-96
2021/01/04 08:48:46;;;;;;;65.73;41.97;;;;;;;;;;5002412;28;20830;-96
2021/01/04 09:00:15;;;;;;;58.43;35.60;;;;;;;;;;5121647;23;20465;-96
2021/01/04 09:02:43;;;;;;;49.90;33.67;;;;;;;;;;5072407;28;20446;-96
2021/01/04 09:05:13;;;;;;;54.43;36.20;;;;;;;;;;5075046;28;20410;-96
2021/01/04 09:13:13;;;;;;;49.83;31.20;;;;;;;;;;4990228;28;20541;-96
2021/01/04 09:15:41;;;;;;;49.80;32.80;;;;;;;;;;4992922;28;20554;-96
2021/01/04 09:18:25;;;;;;;51.83;32.90;;;;;;;;;;4993428;28;20457;-96
2021/01/04 09:20:58;;;;;;;50.87;32.50;;;;;;;;;;4994903;28;20473;-96
2021/01/04 09:23:36;;;;;;;55.40;36.50;;;;;;;;;;4992838;28;20454;-96
2021/01/04 09:26:13;;;;;;;52.90;36.10;;;;;;;;;;5007286;28;20519;-96
2021/01/04 09:43:46;;;;;;;68.40;41.63;;;;;;;;;;5011297;28;20540;-96
2021/01/04 09:46:21;;;;;;;92.13;51.17;;;;;;;;;;5012688;28;20520;-96
2021/01/04 09:48:49;;;;;;;96.43;61.93;;;;;;;;;;5000498;28;20748;-95
2021/01/04 09:51:18;;;;;;;87.07;56.17;;;;;;;;;;4982700;28;20453;-95
2021/01/04 09:53:52;;;;;;;96.50;61.13;;;;;;;;;;4983527;28;20485;-96
2021/01/04 09:56:19;;;;;;;124.97;80.27;;;;;;;;;;5001251;28;20468;-95
2021/01/04 09:58:45;;;;;;;121.23;75.83;;;;;;;;;;5015272;28;20965;-96
2021/01/04 10:01:12;;;;;;;122.07;78.90;;;;;;;;;;5004258;28;20493;-96
2021/01/04 10:03:39;;;;;;;115.50;76.50;;;;;;;;;;5015526;28;20456;-96
2021/01/04 10:06:06;;;;;;;151.87;97.90;;;;;;;;;;4994265;28;20484;-96
2021/01/04 10:08:33;;;;;;;141.07;88.80;;;;;;;;;;4987016;28;20500;-95
2021/01/04 10:11:01;;;;;;;129.67;83.30;;;;;;;;;;4984944;28;20848;-94
2021/01/04 10:13:30;;;;;;;131.20;83.40;;;;;;;;;;4985969;28;20505;-95
2021/01/04 10:15:57;;;;;;;105.80;69.93;;;;;;;;;;4999771;28;20457;-94
2021/01/04 10:18:35;;;;;;;107.33;65.43;;;;;;;;;;5010189;28;20462;-96
2021/01/04 10:21:02;;;;;;;90.63;56.07;;;;;;;;;;5024829;28;20459;-95
2021/01/04 10:23:29;;;;;;;61.77;42.87;;;;;;;;;;5000269;28;20477;-96
2021/01/04 10:25:58;;;;;;;51.00;37.30;;;;;;;;;;5006188;28;20440;-96
2021/01/04 10:28:24;;;;;;;55.03;37.80;;;;;;;;;;5000647;28;20470;-96
2021/01/04 10:31:01;;;;;;;58.30;38.67;;;;;;;;;;5004492;28;20465;-96
2021/01/04 10:33:30;;;;;;;59.03;39.43;;;;;;;;;;5000572;28;20495;-95
2021/01/04 10:36:02;;;;;;;54.30;38.37;;;;;;;;;;5003342;28;20517;-96
2021/01/04 10:38:28;;;;;;;58.33;40.70;;;;;;;;;;4995282;28;20498;-94
2021/01/04 10:40:54;;;;;;;155.50;90.83;;;;;;;;;;4982756;28;20566;-96
2021/01/04 10:43:21;;;;;;;156.03;89.47;;;;;;;;;;4982246;28;20470;-95
2021/01/04 10:45:47;;;;;;;120.23;72.20;;;;;;;;;;4981000;28;20461;-94
2021/01/04 10:48:16;;;;;;;123.10;70.67;;;;;;;;;;4988822;28;20460;-95
2021/01/04 10:50:43;;;;;;;100.47;59.57;;;;;;;;;;4982046;28;20450;-95
2021/01/04 10:53:11;;;;;;;107.80;61.33;;;;;;;;;;4982611;28;20498;-95
2021/01/04 10:55:49;;;;;;;114.37;57.67;;;;;;;;;;4980471;28;20458;-95
2021/01/04 10:58:18;;;;;;;75.17;47.60;;;;;;;;;;4993727;28;20441;-96
2021/01/04 11:00:48;;;;;;;96.50;55.80;;;;;;;;;;4987957;28;20981;-96
2021/01/04 11:03:16;;;;;;;96.03;55.90;;;;;;;;;;4982519;28;20895;-96
2021/01/04 11:05:43;;;;;;;79.37;48.80;;;;;;;;;;4965363;28;20458;-95
2021/01/04 11:08:14;;;;;;;61.27;40.37;;;;;;;;;;4982970;28;20980;-95
2021/01/04 11:10:40;;;;;;;66.13;40.37;;;;;;;;;;4984060;28;20453;-92
2021/01/04 11:13:06;;;;;;;59.40;39.27;;;;;;;;;;4980134;28;21295;-93
2021/01/04 11:15:34;;;;;;;57.53;37.57;;;;;;;;;;4984366;28;20458;-91
2021/01/04 11:18:02;;;;;;;55.53;35.80;;;;;;;;;;4985728;28;20480;-95
2021/01/04 11:20:29;;;;;;;52.57;34.30;;;;;;;;;;5003053;28;20469;-94
2021/01/04 11:23:02;;;;;;;53.77;36.33;;;;;;;;;;4987294;28;20473;-95
2021/01/04 11:25:28;;;;;;;50.73;34.87;;;;;;;;;;4980394;28;20442;-94
2021/01/04 11:27:54;;;;;;;43.80;31.50;;;;;;;;;;4978573;28;20453;-94
2021/01/04 11:30:21;;;;;;;53.37;32.17;;;;;;;;;;4984526;28;20449;-94
2021/01/04 11:32:47;;;;;;;61.43;37.30;;;;;;;;;;4982232;28;20888;-93
2021/01/04 11:35:14;;;;;;;52.27;35.50;;;;;;;;;;4978793;28;20485;-93
2021/01/04 11:37:40;;;;;;;57.27;36.63;;;;;;;;;;4980223;28;20457;-95
2021/01/04 11:40:09;;;;;;;54.27;37.03;;;;;;;;;;4980508;28;20473;-93
2021/01/04 11:42:35;;;;;;;57.77;38.73;;;;;;;;;;4983103;28;20469;-93
2021/01/04 11:45:04;;;;;;;93.00;58.70;;;;;;;;;;4979198;28;20473;-93
2021/01/04 11:47:30;;;;;;;96.50;59.77;;;;;;;;;;4983254;28;20457;-94
2021/01/04 11:49:56;;;;;;;78.73;52.53;;;;;;;;;;4992589;28;20454;-94
2021/01/04 11:52:22;;;;;;;80.97;54.50;;;;;;;;;;4974641;28;20472;-94
2021/01/04 11:54:49;;;;;;;79.70;55.87;;;;;;;;;;4983429;28;21279;-94
2021/01/04 11:57:15;;;;;;;63.17;44.80;;;;;;;;;;4979999;28;20458;-94
2021/01/04 11:59:41;;;;;;;61.47;42.60;;;;;;;;;;4982754;28;20457;-93
2021/01/04 12:02:08;;;;;;;58.97;40.87;;;;;;;;;;4979958;28;20474;-93
2021/01/04 12:04:34;;;;;;;49.10;35.70;;;;;;;;;;4997684;28;20794;-93
2021/01/04 12:07:00;;;;;;;49.40;35.13;;;;;;;;;;4988009;28;20461;-94
2021/01/04 12:09:26;;;;;;;73.87;53.23;;;;;;;;;;4982982;28;20457;-94
2021/01/04 12:11:53;;;;;;;77.90;55.80;;;;;;;;;;4981811;28;20474;-94
2021/01/04 12:14:20;;;;;;;54.50;41.60;;;;;;;;;;4979630;28;20511;-93
2021/01/04 12:16:46;;;;;;;60.43;42.97;;;;;;;;;;4983215;28;20507;-94
2021/01/04 12:19:12;;;;;;;53.47;38.47;;;;;;;;;;4978988;28;20516;-93
2021/01/04 12:21:39;;;;;;;51.27;37.77;;;;;;;;;;4980419;28;20481;-95
2021/01/04 12:24:05;;;;;;;62.30;40.10;;;;;;;;;;4976143;28;20461;-92
2021/01/04 12:26:31;;;;;;;50.93;37.17;;;;;;;;;;4981477;28;20450;-93
2021/01/04 12:28:58;;;;;;;57.23;41.20;;;;;;;;;;4978897;28;23349;-94
2021/01/04 12:31:24;;;;;;;59.87;42.17;;;;;;;;;;4981288;28;20469;-93
2021/01/04 12:33:50;;;;;;;53.27;40.40;;;;;;;;;;4981040;28;21052;-94
2021/01/04 12:36:18;;;;;;;58.13;41.00;;;;;;;;;;4975892;28;20460;-92
2021/01/04 12:38:45;;;;;;;43.63;33.73;;;;;;;;;;4981060;28;20477;-92
2021/01/04 12:41:11;;;;;;;36.37;28.20;;;;;;;;;;4979876;28;20519;-91
2021/01/04 12:43:37;;;;;;;42.80;29.00;;;;;;;;;;4982338;28;20850;-92
2021/01/04 12:46:04;;;;;;;41.37;31.57;;;;;;;;;;4976721;28;20449;-93
2021/01/04 12:48:30;;;;;;;42.80;31.37;;;;;;;;;;4985341;28;20521;-93
2021/01/04 12:50:56;;;;;;;41.00;30.00;;;;;;;;;;4989931;28;20463;-93
2021/01/04 12:53:22;;;;;;;40.90;30.17;;;;;;;;;;4979077;28;20501;-94
2021/01/04 12:55:48;;;;;;;37.63;27.17;;;;;;;;;;4981990;28;20492;-92
2021/01/04 12:58:14;;;;;;;45.63;32.70;;;;;;;;;;4978233;28;20462;-93
2021/01/04 13:00:41;;;;;;;50.67;35.37;;;;;;;;;;4979963;28;20473;-93
2021/01/04 13:03:11;;;;;;;49.63;33.40;;;;;;;;;;4978070;28;20457;-92
2021/01/04 13:05:37;;;;;;;28.33;21.00;;;;;;;;;;4983070;28;20852;-93
2021/01/04 13:08:03;;;;;;;39.73;28.17;;;;;;;;;;4978629;28;20466;-90
2021/01/04 13:10:29;;;;;;;33.37;25.07;;;;;;;;;;4979578;28;20563;-92
2021/01/04 13:12:55;;;;;;;31.33;23.57;;;;;;;;;;4982015;28;20493;-94
2021/01/04 13:15:21;;;;;;;20.07;16.73;;;;;;;;;;4978657;28;20453;-94
2021/01/04 13:17:47;;;;;;;18.70;15.27;;;;;;;;;;4984193;28;20461;-96
2021/01/04 13:20:14;;;;;;;2.10;1.90;;;;;;;;;;4986899;28;20481;-96
2021/01/04 13:22:41;;;;;;;1.30;1.10;;;;;;;;;;4991877;28;20449;-95
2021/01/04 13:25:08;;;;;;;1.47;1.00;;;;;;;;;;4999282;28;20465;-93
2021/01/04 13:27:40;;;;;;;1.03;1.00;;;;;;;;;;4988064;28;20449;-95
2021/01/04 13:30:07;;;;;;;0.87;0.87;;;;;;;;;;4987569;28;20455;-96
2021/01/04 13:32:34;;;;;;;1.43;0.70;;;;;;;;;;4971970;28;20449;-96
2021/01/04 13:35:00;;;;;;;1.57;1.30;;;;;;;;;;5003398;28;20456;-95
2021/01/04 13:37:27;;;;;;;2.20;1.10;;;;;;;;;;5002274;28;20459;-96
2021/01/04 13:39:54;;;;;;;2.13;1.20;;;;;;;;;;5020768;28;20495;-96
2021/01/04 13:42:20;;;;;;;2.20;1.40;;;;;;;;;;5012587;28;20475;-94
2021/01/04 13:44:53;;;;;;;0.97;0.87;;;;;;;;;;5008913;28;20460;-96
2021/01/04 13:47:20;;;;;;;1.00;0.90;;;;;;;;;;5004030;28;20483;-94
2021/01/04 13:49:49;;;;;;;1.23;1.13;;;;;;;;;;5027984;23;20490;-96
2021/01/04 13:52:19;;;;;;;1.20;1.00;;;;;;;;;;4985818;28;20496;-95
2021/01/04 13:54:51;;;;;;;1.03;0.90;;;;;;;;;;4988608;28;20469;-94
2021/01/04 13:57:17;;;;;;;1.03;0.97;;;;;;;;;;4988535;28;20452;-96
2021/01/04 13:59:46;;;;;;;0.73;0.73;;;;;;;;;;5004126;28;20476;-95
2021/01/04 14:02:14;;;;;;;0.93;0.77;;;;;;;;;;4993600;28;20510;-96
2021/01/04 14:04:40;;;;;;;1.07;1.00;;;;;;;;;;4981389;28;20469;-95
2021/01/04 14:07:09;;;;;;;3.73;0.80;;;;;;;;;;4989655;28;20461;-94
2021/01/04 14:09:35;;;;;;;0.80;0.80;;;;;;;;;;4977390;28;20478;-96
2021/01/04 14:12:04;;;;;;;0.93;0.90;;;;;;;;;;4967843;29;20466;-96
2021/01/04 14:14:33;;;;;;;1.30;1.20;;;;;;;;;;4967070;28;20525;-96
2021/01/04 14:17:08;;;;;;;1.10;1.00;;;;;;;;;;4968508;29;20531;-96
2021/01/04 14:19:34;;;;;;;1.20;1.10;;;;;;;;;;4973885;28;20470;-95
2021/01/04 14:22:01;;;;;;;1.13;1.00;;;;;;;;;;4986117;28;20456;-95
2021/01/04 14:24:27;;;;;;;0.90;0.90;;;;;;;;;;4987383;28;20461;-93
2021/01/04 14:26:55;;;;;;;1.33;1.23;;;;;;;;;;4965977;28;20458;-96
2021/01/04 14:29:22;;;;;;;4.03;1.60;;;;;;;;;;5002696;28;20539;-94
2021/01/04 14:31:48;;;;;;;1.20;1.10;;;;;;;;;;4986979;28;20446;-96
2021/01/04 14:34:29;;;;;;;1.20;1.10;;;;;;;;;;4986674;28;20501;-95
2021/01/04 14:36:56;;;;;;;2.33;1.20;;;;;;;;;;4980150;28;20488;-94
2021/01/04 14:39:22;;;;;;;1.37;1.10;;;;;;;;;;5007523;28;20488;-93
2021/01/04 14:42:06;;;;;;;1.10;1.00;;;;;;;;;;4999247;28;20458;-93
2021/01/04 14:44:33;;;;;;;1.10;1.00;;;;;;;;;;5012820;23;20479;-96
2021/01/04 14:47:09;;;;;;;0.80;0.80;;;;;;;;;;5030196;28;20494;-96
2021/01/04 14:49:35;;;;;;;1.13;1.10;;;;;;;;;;5006615;28;20448;-89
2021/01/04 14:52:01;;;;;;;0.90;0.90;;;;;;;;;;5009481;28;20459;-93
2021/01/04 14:54:28;;;;;;;1.30;1.20;;;;;;;;;;5014338;28;20526;-94
2021/01/04 14:56:55;;;;;;;1.80;1.07;;;;;;;;;;5016838;28;20530;-95
2021/01/04 14:59:22;;;;;;;1.03;1.03;;;;;;;;;;5004458;28;20527;-94
2021/01/04 15:01:49;;;;;;;1.30;1.07;;;;;;;;;;5006762;28;20471;-94
2021/01/04 15:04:18;;;;;;;1.00;0.97;;;;;;;;;;4996392;28;20468;-94
2021/01/04 15:06:44;;;;;;;0.93;0.93;;;;;;;;;;5030766;28;20466;-94
2021/01/04 15:09:12;;;;;;;1.00;0.90;;;;;;;;;;5033602;28;20472;-94
2021/01/04 15:11:40;;;;;;;2.80;1.70;;;;;;;;;;5024480;28;20444;-93
2021/01/04 15:14:09;;;;;;;1.83;1.73;;;;;;;;;;5024072;28;21248;-96
2021/01/04 15:16:40;;;;;;;3.70;2.97;;;;;;;;;;5016289;28;20482;-95
2021/01/04 15:19:07;;;;;;;3.80;3.40;;;;;;;;;;5017254;28;20467;-94
2021/01/04 15:21:33;;;;;;;2.03;1.93;;;;;;;;;;5004961;28;20464;-93
2021/01/04 15:23:59;;;;;;;1.87;1.53;;;;;;;;;;5004756;28;20449;-96